sensor_id;sensor_type;location;lat;lon;timestamp;temperature;humidity
22426;DHT22;11380;50.822;15.790;2023-05-18T00:04:16;7.30;1.00
22426;DHT22;11380;50.822;15.790;2023-05-18T00:09:25;7.10;1.00
22426;DHT22;11380;50.822;15.790;2023-05-18T00:14:32;7.10;1.00
22426;DHT22;11380;50.822;15.790;2023-05-18T00:19:39;7.00;1.00
22426;DHT22;11380;50.822;15.790;2023-05-18T00:24:45;7.10;1.00
22426;DHT22;11380;50.822;15.790;2023-05-18T00:29:52;7.20;1.00
22426;DHT22;11380;50.822;15.790;2023-05-18T00:34:59;7.20;1.00
22426;DHT22;11380;50.822;15.790;2023-05-18T00:40:07;7.20;1.00
22426;DHT22;11380;50.822;15.790;2023-05-18T00:45:15;7.40;1.00
22426;DHT22;11380;50.822;15.790;2023-05-18T00:50:24;7.20;1.00
22426;DHT22;11380;50.822;15.790;2023-05-18T00:55:31;7.20;1.00
22426;DHT22;11380;50.822;15.790;2023-05-18T01:00:38;7.00;1.00
22426;DHT22;11380;50.822;15.790;2023-05-18T01:05:46;6.90;1.00
22426;DHT22;11380;50.822;15.790;2023-05-18T01:16:15;6.70;1.00
22426;DHT22;11380;50.822;15.790;2023-05-18T01:26:57;6.70;1.00
22426;DHT22;11380;50.822;15.790;2023-05-18T01:32:06;6.70;1.00
22426;DHT22;11380;50.822;15.790;2023-05-18T01:37:14;6.70;1.00
22426;DHT22;11380;50.822;15.790;2023-05-18T01:42:23;6.70;1.00
22426;DHT22;11380;50.822;15.790;2023-05-18T01:47:32;7.00;1.00
22426;DHT22;11380;50.822;15.790;2023-05-18T01:52:57;6.80;1.00
22426;DHT22;11380;50.822;15.790;2023-05-18T01:58:11;6.70;1.00
22426;DHT22;11380;50.822;15.790;2023-05-18T02:03:19;6.70;1.00
22426;DHT22;11380;50.822;15.790;2023-05-18T02:08:27;6.60;1.00
22426;DHT22;11380;50.822;15.790;2023-05-18T02:13:35;6.70;1.00
22426;DHT22;11380;50.822;15.790;2023-05-18T02:18:42;6.70;1.00
22426;DHT22;11380;50.822;15.790;2023-05-18T02:23:50;6.80;1.00
22426;DHT22;11380;50.822;15.790;2023-05-18T02:28:57;6.90;1.00
22426;DHT22;11380;50.822;15.790;2023-05-18T02:34:04;7.00;1.00
22426;DHT22;11380;50.822;15.790;2023-05-18T02:39:13;7.10;1.00
22426;DHT22;11380;50.822;15.790;2023-05-18T02:44:21;6.80;1.00
22426;DHT22;11380;50.822;15.790;2023-05-18T02:49:28;6.70;1.00
22426;DHT22;11380;50.822;15.790;2023-05-18T02:54:37;6.90;1.00
22426;DHT22;11380;50.822;15.790;2023-05-18T02:59:43;7.00;1.00
22426;DHT22;11380;50.822;15.790;2023-05-18T03:04:50;6.70;1.00
22426;DHT22;11380;50.822;15.790;2023-05-18T03:10:02;6.80;1.00
22426;DHT22;11380;50.822;15.790;2023-05-18T03:15:11;6.90;1.00
22426;DHT22;11380;50.822;15.790;2023-05-18T03:20:20;6.70;1.00
22426;DHT22;11380;50.822;15.790;2023-05-18T03:25:28;6.70;1.00
22426;DHT22;11380;50.822;15.790;2023-05-18T03:30:37;6.80;1.00
22426;DHT22;11380;50.822;15.790;2023-05-18T03:35:45;6.60;1.00
22426;DHT22;11380;50.822;15.790;2023-05-18T03:40:53;6.70;1.00
22426;DHT22;11380;50.822;15.790;2023-05-18T03:46:01;6.50;1.00
22426;DHT22;11380;50.822;15.790;2023-05-18T03:51:08;6.70;1.00
22426;DHT22;11380;50.822;15.790;2023-05-18T03:56:17;6.90;1.00
22426;DHT22;11380;50.822;15.790;2023-05-18T04:01:25;6.80;1.00
22426;DHT22;11380;50.822;15.790;2023-05-18T04:06:34;6.90;1.00
22426;DHT22;11380;50.822;15.790;2023-05-18T04:11:42;7.10;1.00
22426;DHT22;11380;50.822;15.790;2023-05-18T04:16:51;6.90;1.00
22426;DHT22;11380;50.822;15.790;2023-05-18T04:21:57;6.80;1.00
22426;DHT22;11380;50.822;15.790;2023-05-18T04:27:05;6.90;1.00
22426;DHT22;11380;50.822;15.790;2023-05-18T04:32:13;7.20;1.00
22426;DHT22;11380;50.822;15.790;2023-05-18T04:37:23;7.30;1.00
22426;DHT22;11380;50.822;15.790;2023-05-18T04:42:30;7.30;1.00
22426;DHT22;11380;50.822;15.790;2023-05-18T04:47:39;7.20;1.00
22426;DHT22;11380;50.822;15.790;2023-05-18T04:52:48;7.50;1.00
22426;DHT22;11380;50.822;15.790;2023-05-18T04:57:57;8.00;1.00
22426;DHT22;11380;50.822;15.790;2023-05-18T05:03:05;8.40;1.00
22426;DHT22;11380;50.822;15.790;2023-05-18T05:08:12;8.80;1.00
22426;DHT22;11380;50.822;15.790;2023-05-18T05:13:20;9.00;1.00
22426;DHT22;11380;50.822;15.790;2023-05-18T05:18:27;8.60;1.00
22426;DHT22;11380;50.822;15.790;2023-05-18T05:23:34;8.70;1.00
22426;DHT22;11380;50.822;15.790;2023-05-18T05:28:42;8.60;99.90
22426;DHT22;11380;50.822;15.790;2023-05-18T05:33:49;8.50;99.90
22426;DHT22;11380;50.822;15.790;2023-05-18T05:38:56;8.60;99.90
22426;DHT22;11380;50.822;15.790;2023-05-18T05:44:03;8.80;99.90
22426;DHT22;11380;50.822;15.790;2023-05-18T05:49:11;9.00;99.90
22426;DHT22;11380;50.822;15.790;2023-05-18T05:54:18;9.20;99.90
22426;DHT22;11380;50.822;15.790;2023-05-18T05:59:25;9.50;99.90
22426;DHT22;11380;50.822;15.790;2023-05-18T06:04:31;9.80;99.90
22426;DHT22;11380;50.822;15.790;2023-05-18T06:09:39;9.80;1.00
22426;DHT22;11380;50.822;15.790;2023-05-18T06:14:46;10.00;99.90
22426;DHT22;11380;50.822;15.790;2023-05-18T06:19:54;10.00;99.90
22426;DHT22;11380;50.822;15.790;2023-05-18T06:25:01;9.70;99.90
22426;DHT22;11380;50.822;15.790;2023-05-18T06:30:09;9.80;99.90
22426;DHT22;11380;50.822;15.790;2023-05-18T06:35:17;9.30;99.90
22426;DHT22;11380;50.822;15.790;2023-05-18T06:40:25;9.70;99.90
22426;DHT22;11380;50.822;15.790;2023-05-18T06:45:32;9.40;99.90
22426;DHT22;11380;50.822;15.790;2023-05-18T06:50:41;9.50;99.90
22426;DHT22;11380;50.822;15.790;2023-05-18T06:55:49;9.80;99.90
22426;DHT22;11380;50.822;15.790;2023-05-18T07:00:56;10.00;99.90
22426;DHT22;11380;50.822;15.790;2023-05-18T07:06:04;9.90;99.90
22426;DHT22;11380;50.822;15.790;2023-05-18T07:11:12;9.90;99.90
22426;DHT22;11380;50.822;15.790;2023-05-18T07:16:19;10.40;99.90
22426;DHT22;11380;50.822;15.790;2023-05-18T07:21:27;9.80;99.90
22426;DHT22;11380;50.822;15.790;2023-05-18T07:26:35;10.50;99.90
22426;DHT22;11380;50.822;15.790;2023-05-18T07:31:42;10.60;1.00
22426;DHT22;11380;50.822;15.790;2023-05-18T07:36:49;10.80;99.90
22426;DHT22;11380;50.822;15.790;2023-05-18T07:41:57;10.80;99.90
22426;DHT22;11380;50.822;15.790;2023-05-18T07:47:04;10.90;99.90
22426;DHT22;11380;50.822;15.790;2023-05-18T07:52:12;11.00;99.90
22426;DHT22;11380;50.822;15.790;2023-05-18T07:57:19;11.00;99.90
22426;DHT22;11380;50.822;15.790;2023-05-18T08:02:26;11.20;99.90
22426;DHT22;11380;50.822;15.790;2023-05-18T08:07:36;11.90;1.00
22426;DHT22;11380;50.822;15.790;2023-05-18T08:12:43;12.50;1.00
22426;DHT22;11380;50.822;15.790;2023-05-18T08:17:49;12.60;1.00
22426;DHT22;11380;50.822;15.790;2023-05-18T08:22:57;12.50;1.00
22426;DHT22;11380;50.822;15.790;2023-05-18T08:28:04;12.20;1.00
22426;DHT22;11380;50.822;15.790;2023-05-18T08:33:12;12.50;1.00
22426;DHT22;11380;50.822;15.790;2023-05-18T08:38:18;13.90;1.00
22426;DHT22;11380;50.822;15.790;2023-05-18T08:43:28;12.40;99.90
22426;DHT22;11380;50.822;15.790;2023-05-18T08:48:37;13.00;1.00
22426;DHT22;11380;50.822;15.790;2023-05-18T08:53:50;11.50;99.90
22426;DHT22;11380;50.822;15.790;2023-05-18T08:58:57;11.70;99.90
22426;DHT22;11380;50.822;15.790;2023-05-18T09:04:05;11.60;99.90
22426;DHT22;11380;50.822;15.790;2023-05-18T09:09:13;11.50;99.90
22426;DHT22;11380;50.822;15.790;2023-05-18T09:14:21;11.60;99.90
22426;DHT22;11380;50.822;15.790;2023-05-18T09:19:30;11.50;99.90
22426;DHT22;11380;50.822;15.790;2023-05-18T09:24:38;11.20;99.90
22426;DHT22;11380;50.822;15.790;2023-05-18T09:29:53;12.60;99.90
22426;DHT22;11380;50.822;15.790;2023-05-18T09:35:05;12.70;99.90
22426;DHT22;11380;50.822;15.790;2023-05-18T09:40:14;13.10;99.90
22426;DHT22;11380;50.822;15.790;2023-05-18T09:45:23;12.70;99.90
22426;DHT22;11380;50.822;15.790;2023-05-18T09:50:32;13.60;99.90
22426;DHT22;11380;50.822;15.790;2023-05-18T09:55:46;12.40;99.90
22426;DHT22;11380;50.822;15.790;2023-05-18T10:00:55;14.10;99.90
22426;DHT22;11380;50.822;15.790;2023-05-18T10:06:06;14.00;99.90
22426;DHT22;11380;50.822;15.790;2023-05-18T10:11:22;14.00;99.90
22426;DHT22;11380;50.822;15.790;2023-05-18T10:16:24;14.60;99.90
22426;DHT22;11380;50.822;15.790;2023-05-18T10:21:33;13.30;99.90
22426;DHT22;11380;50.822;15.790;2023-05-18T10:26:42;13.10;99.90
22426;DHT22;11380;50.822;15.790;2023-05-18T10:31:49;15.00;99.90
22426;DHT22;11380;50.822;15.790;2023-05-18T10:37:00;13.80;99.90
22426;DHT22;11380;50.822;15.790;2023-05-18T10:42:11;13.90;99.90
22426;DHT22;11380;50.822;15.790;2023-05-18T10:47:21;13.10;99.90
22426;DHT22;11380;50.822;15.790;2023-05-18T10:52:32;13.50;99.90
22426;DHT22;11380;50.822;15.790;2023-05-18T10:57:42;14.00;99.90
22426;DHT22;11380;50.822;15.790;2023-05-18T11:02:53;14.40;99.90
22426;DHT22;11380;50.822;15.790;2023-05-18T11:08:02;14.70;99.90
22426;DHT22;11380;50.822;15.790;2023-05-18T11:13:11;14.30;99.90
22426;DHT22;11380;50.822;15.790;2023-05-18T11:18:19;13.30;99.90
22426;DHT22;11380;50.822;15.790;2023-05-18T11:23:41;14.70;99.90
22426;DHT22;11380;50.822;15.790;2023-05-18T11:28:50;14.50;99.90
22426;DHT22;11380;50.822;15.790;2023-05-18T11:33:57;14.60;99.90
22426;DHT22;11380;50.822;15.790;2023-05-18T11:39:05;14.50;99.90
22426;DHT22;11380;50.822;15.790;2023-05-18T11:44:15;14.20;99.90
22426;DHT22;11380;50.822;15.790;2023-05-18T11:49:25;13.80;99.90
22426;DHT22;11380;50.822;15.790;2023-05-18T11:54:41;14.90;99.90
22426;DHT22;11380;50.822;15.790;2023-05-18T11:59:55;14.40;99.90
22426;DHT22;11380;50.822;15.790;2023-05-18T12:05:07;16.10;99.90
22426;DHT22;11380;50.822;15.790;2023-05-18T12:10:15;14.50;99.90
22426;DHT22;11380;50.822;15.790;2023-05-18T12:15:23;13.40;99.90
22426;DHT22;11380;50.822;15.790;2023-05-18T12:20:32;14.20;99.90
22426;DHT22;11380;50.822;15.790;2023-05-18T12:25:40;14.20;99.90
22426;DHT22;11380;50.822;15.790;2023-05-18T12:30:46;14.70;99.90
22426;DHT22;11380;50.822;15.790;2023-05-18T12:35:54;13.80;99.90
22426;DHT22;11380;50.822;15.790;2023-05-18T12:41:02;14.50;99.90
22426;DHT22;11380;50.822;15.790;2023-05-18T12:46:11;14.10;99.90
22426;DHT22;11380;50.822;15.790;2023-05-18T12:51:19;13.90;99.90
22426;DHT22;11380;50.822;15.790;2023-05-18T13:01:56;13.60;99.90
22426;DHT22;11380;50.822;15.790;2023-05-18T13:07:04;14.50;99.90
22426;DHT22;11380;50.822;15.790;2023-05-18T13:12:12;14.20;99.90
22426;DHT22;11380;50.822;15.790;2023-05-18T13:17:26;13.80;99.90
22426;DHT22;11380;50.822;15.790;2023-05-18T13:22:31;14.00;99.90
22426;DHT22;11380;50.822;15.790;2023-05-18T13:27:38;13.40;99.90
22426;DHT22;11380;50.822;15.790;2023-05-18T13:32:45;13.70;99.90
22426;DHT22;11380;50.822;15.790;2023-05-18T13:37:52;14.30;99.90
22426;DHT22;11380;50.822;15.790;2023-05-18T13:43:00;14.50;99.90
22426;DHT22;11380;50.822;15.790;2023-05-18T13:48:10;14.00;99.90
22426;DHT22;11380;50.822;15.790;2023-05-18T13:53:19;14.00;99.90
22426;DHT22;11380;50.822;15.790;2023-05-18T13:58:27;13.50;99.90
22426;DHT22;11380;50.822;15.790;2023-05-18T14:03:34;13.70;99.90
22426;DHT22;11380;50.822;15.790;2023-05-18T14:08:41;13.60;99.90
22426;DHT22;11380;50.822;15.790;2023-05-18T14:13:49;13.50;99.90
22426;DHT22;11380;50.822;15.790;2023-05-18T14:18:56;13.50;99.90
22426;DHT22;11380;50.822;15.790;2023-05-18T14:24:03;13.90;99.90
22426;DHT22;11380;50.822;15.790;2023-05-18T14:29:14;13.60;99.90
22426;DHT22;11380;50.822;15.790;2023-05-18T14:34:23;14.10;99.90
22426;DHT22;11380;50.822;15.790;2023-05-18T14:39:31;13.60;99.90
22426;DHT22;11380;50.822;15.790;2023-05-18T14:44:38;13.30;99.90
22426;DHT22;11380;50.822;15.790;2023-05-18T14:49:46;13.00;99.90
22426;DHT22;11380;50.822;15.790;2023-05-18T14:54:53;13.00;99.90
22426;DHT22;11380;50.822;15.790;2023-05-18T15:00:01;13.80;99.90
22426;DHT22;11380;50.822;15.790;2023-05-18T15:05:08;13.60;99.90
22426;DHT22;11380;50.822;15.790;2023-05-18T15:10:15;13.50;99.90
22426;DHT22;11380;50.822;15.790;2023-05-18T15:15:27;12.90;99.90
22426;DHT22;11380;50.822;15.790;2023-05-18T15:20:35;13.50;99.90
22426;DHT22;11380;50.822;15.790;2023-05-18T15:25:44;14.10;99.90
22426;DHT22;11380;50.822;15.790;2023-05-18T15:30:50;14.10;99.90
22426;DHT22;11380;50.822;15.790;2023-05-18T15:35:58;14.00;99.90
22426;DHT22;11380;50.822;15.790;2023-05-18T15:41:05;14.10;99.90
22426;DHT22;11380;50.822;15.790;2023-05-18T15:46:13;14.30;99.90
22426;DHT22;11380;50.822;15.790;2023-05-18T15:51:20;14.20;99.90
22426;DHT22;11380;50.822;15.790;2023-05-18T15:56:31;13.90;99.90
22426;DHT22;11380;50.822;15.790;2023-05-18T16:01:38;13.70;99.90
22426;DHT22;11380;50.822;15.790;2023-05-18T16:06:45;14.00;99.90
22426;DHT22;11380;50.822;15.790;2023-05-18T16:11:53;13.40;99.90
22426;DHT22;11380;50.822;15.790;2023-05-18T16:17:01;13.00;99.90
22426;DHT22;11380;50.822;15.790;2023-05-18T16:22:08;12.90;99.90
22426;DHT22;11380;50.822;15.790;2023-05-18T16:27:15;12.90;99.90
22426;DHT22;11380;50.822;15.790;2023-05-18T16:32:23;13.30;99.90
22426;DHT22;11380;50.822;15.790;2023-05-18T16:37:34;12.90;99.90
22426;DHT22;11380;50.822;15.790;2023-05-18T16:42:41;13.20;99.90
22426;DHT22;11380;50.822;15.790;2023-05-18T16:47:49;13.20;99.90
22426;DHT22;11380;50.822;15.790;2023-05-18T16:52:56;12.70;99.90
22426;DHT22;11380;50.822;15.790;2023-05-18T16:58:04;12.70;99.90
22426;DHT22;11380;50.822;15.790;2023-05-18T17:03:11;12.70;99.90
22426;DHT22;11380;50.822;15.790;2023-05-18T17:08:21;12.80;99.90
22426;DHT22;11380;50.822;15.790;2023-05-18T17:13:28;13.00;99.90
22426;DHT22;11380;50.822;15.790;2023-05-18T17:18:35;13.10;1.00
22426;DHT22;11380;50.822;15.790;2023-05-18T17:23:42;13.20;1.00
22426;DHT22;11380;50.822;15.790;2023-05-18T17:28:49;13.20;1.00
22426;DHT22;11380;50.822;15.790;2023-05-18T17:33:57;13.10;1.00
22426;DHT22;11380;50.822;15.790;2023-05-18T17:39:03;13.00;1.00
22426;DHT22;11380;50.822;15.790;2023-05-18T17:44:10;13.10;1.00
22426;DHT22;11380;50.822;15.790;2023-05-18T17:49:21;12.80;1.00
22426;DHT22;11380;50.822;15.790;2023-05-18T17:54:29;12.70;1.00
22426;DHT22;11380;50.822;15.790;2023-05-18T17:59:36;12.50;1.00
22426;DHT22;11380;50.822;15.790;2023-05-18T18:04:43;12.50;1.00
22426;DHT22;11380;50.822;15.790;2023-05-18T18:09:51;12.40;1.00
22426;DHT22;11380;50.822;15.790;2023-05-18T18:14:57;12.70;1.00
22426;DHT22;11380;50.822;15.790;2023-05-18T18:20:05;12.60;1.00
22426;DHT22;11380;50.822;15.790;2023-05-18T18:25:13;12.40;99.90
22426;DHT22;11380;50.822;15.790;2023-05-18T18:30:21;12.20;1.00
22426;DHT22;11380;50.822;15.790;2023-05-18T18:35:28;11.90;1.00
22426;DHT22;11380;50.822;15.790;2023-05-18T18:40:36;11.80;1.00
22426;DHT22;11380;50.822;15.790;2023-05-18T18:45:43;11.70;99.90
22426;DHT22;11380;50.822;15.790;2023-05-18T18:50:49;11.50;1.00
22426;DHT22;11380;50.822;15.790;2023-05-18T18:55:57;10.70;1.00
22426;DHT22;11380;50.822;15.790;2023-05-18T19:01:05;10.60;99.90
22426;DHT22;11380;50.822;15.790;2023-05-18T19:06:12;10.70;1.00
22426;DHT22;11380;50.822;15.790;2023-05-18T19:11:23;10.50;15.50
22426;DHT22;11380;50.822;15.790;2023-05-18T19:16:31;10.40;99.90
22426;DHT22;11380;50.822;15.790;2023-05-18T19:21:38;9.90;99.90
22426;DHT22;11380;50.822;15.790;2023-05-18T19:26:46;9.60;99.90
22426;DHT22;11380;50.822;15.790;2023-05-18T19:31:55;9.40;99.90
22426;DHT22;11380;50.822;15.790;2023-05-18T19:37:02;9.40;99.90
22426;DHT22;11380;50.822;15.790;2023-05-18T19:42:11;8.90;1.00
22426;DHT22;11380;50.822;15.790;2023-05-18T19:47:18;9.00;1.00
22426;DHT22;11380;50.822;15.790;2023-05-18T19:52:24;9.10;99.90
22426;DHT22;11380;50.822;15.790;2023-05-18T19:57:31;9.00;99.90
22426;DHT22;11380;50.822;15.790;2023-05-18T20:02:39;8.70;99.90
22426;DHT22;11380;50.822;15.790;2023-05-18T20:07:47;8.50;1.00
22426;DHT22;11380;50.822;15.790;2023-05-18T20:12:55;8.70;1.00
22426;DHT22;11380;50.822;15.790;2023-05-18T20:18:02;8.90;1.00
22426;DHT22;11380;50.822;15.790;2023-05-18T20:23:11;8.70;1.00
22426;DHT22;11380;50.822;15.790;2023-05-18T20:28:19;8.50;1.00
22426;DHT22;11380;50.822;15.790;2023-05-18T20:33:27;8.40;1.00
22426;DHT22;11380;50.822;15.790;2023-05-18T20:38:35;8.80;1.00
22426;DHT22;11380;50.822;15.790;2023-05-18T20:43:42;8.70;1.00
22426;DHT22;11380;50.822;15.790;2023-05-18T20:48:51;8.60;1.00
22426;DHT22;11380;50.822;15.790;2023-05-18T20:54:00;8.70;1.00
22426;DHT22;11380;50.822;15.790;2023-05-18T20:59:07;8.60;1.00
22426;DHT22;11380;50.822;15.790;2023-05-18T21:04:14;8.40;1.00
22426;DHT22;11380;50.822;15.790;2023-05-18T21:09:21;8.70;1.00
22426;DHT22;11380;50.822;15.790;2023-05-18T21:14:30;8.30;1.00
22426;DHT22;11380;50.822;15.790;2023-05-18T21:19:36;8.10;1.00
22426;DHT22;11380;50.822;15.790;2023-05-18T21:24:43;8.20;1.00
22426;DHT22;11380;50.822;15.790;2023-05-18T21:29:51;8.20;1.00
22426;DHT22;11380;50.822;15.790;2023-05-18T21:34:59;7.90;1.00
22426;DHT22;11380;50.822;15.790;2023-05-18T21:40:08;7.70;1.00
22426;DHT22;11380;50.822;15.790;2023-05-18T21:45:15;7.70;1.00
22426;DHT22;11380;50.822;15.790;2023-05-18T21:50:23;7.80;1.00
22426;DHT22;11380;50.822;15.790;2023-05-18T21:55:32;7.80;1.00
22426;DHT22;11380;50.822;15.790;2023-05-18T22:00:40;7.90;1.00
22426;DHT22;11380;50.822;15.790;2023-05-18T22:05:48;7.70;1.00
22426;DHT22;11380;50.822;15.790;2023-05-18T22:10:56;7.70;1.00
22426;DHT22;11380;50.822;15.790;2023-05-18T22:16:03;7.80;1.00
22426;DHT22;11380;50.822;15.790;2023-05-18T22:21:12;7.90;1.00
22426;DHT22;11380;50.822;15.790;2023-05-18T22:26:19;7.80;1.00
22426;DHT22;11380;50.822;15.790;2023-05-18T22:31:27;7.80;1.00
22426;DHT22;11380;50.822;15.790;2023-05-18T22:36:35;7.80;1.00
22426;DHT22;11380;50.822;15.790;2023-05-18T22:41:43;7.80;1.00
22426;DHT22;11380;50.822;15.790;2023-05-18T22:46:51;7.90;1.00
22426;DHT22;11380;50.822;15.790;2023-05-18T22:51:58;7.90;1.00
22426;DHT22;11380;50.822;15.790;2023-05-18T22:57:07;7.70;1.00
22426;DHT22;11380;50.822;15.790;2023-05-18T23:02:15;7.70;1.00
22426;DHT22;11380;50.822;15.790;2023-05-18T23:07:23;7.70;1.00
22426;DHT22;11380;50.822;15.790;2023-05-18T23:12:32;7.70;1.00
22426;DHT22;11380;50.822;15.790;2023-05-18T23:17:41;7.80;1.00
22426;DHT22;11380;50.822;15.790;2023-05-18T23:22:51;7.60;1.00
22426;DHT22;11380;50.822;15.790;2023-05-18T23:27:57;7.40;1.00
22426;DHT22;11380;50.822;15.790;2023-05-18T23:33:05;7.30;1.00
22426;DHT22;11380;50.822;15.790;2023-05-18T23:38:14;7.20;1.00
22426;DHT22;11380;50.822;15.790;2023-05-18T23:43:24;7.40;1.00
22426;DHT22;11380;50.822;15.790;2023-05-18T23:48:32;7.10;1.00
22426;DHT22;11380;50.822;15.790;2023-05-18T23:53:39;7.40;1.00
22426;DHT22;11380;50.822;15.790;2023-05-18T23:58:46;7.50;1.00
